Main page
METAR-TAF:

METAR-TAF

Airports :

Biarritz Pays Basque Airport

Biarritz, France

latitude: 43-28N, longitude: 001-32W, elevation: 75 m

Current weather observation

The report was made 16 minutes ago, at 15:30 UTC
Wind 9 kt from the North, varying between Northwest and North/Northeast
Temperature 14°C
Humidity 44%
Pressure 1019 hPa
Visibility 10 km or more
no clouds below 1500 m and no cumulonimbus

METAR: LFBZ 281530Z AUTO 35009KT 310V020 CAVOK 14/02 Q1019

Time: 16:46 (15:46 UTC)

Forecast

The report was made 28 hours and 46 minutes ago, at 11:00 UTC
Forecast valid from 27 at 12 UTC to 28 at 12 UTC
Wind 10 kt from the Northwest
Visibility 10 km or more
no clouds below 1500 m and no cumulonimbus
Becoming
from 27 at 19 UTC to 27 at 21 UTC
Wind 5 kt from the South/Southeast

TAF: LFBZ 271100Z 2712/2812 32010KT CAVOK BECMG 2719/2721 16005KT

Weather observations and forecasts of more than 4000 airports (METAR and TAF reports).

The available stations are represented by yellow and red dots on the map.

Hover mouse over dot to see the name of the station.

Then click to see weather observations and forecasts.

To change the map : click on the green buttons with a black cross to zoom in, on the green button with a dash to zoom out, or on the green arrows for adjacent maps.


METAR-TAF: